메인 페이지
METAR-TAF:

METAR-TAF

공항 :

도쿄 국제공항

도쿄국제공항, 일본

위도: 35-33N, 경도: 139-47E, 고도: 5m

현재 날씨관측

예보는 37분 전, 10:00시(UTC)에 발표되었습니다.
북북서12kt, 순간 최대 풍속 23kt북서풍과 풍을 오가는
온도 7°C
습도 39%
기압 1027 hPa
시정 10km 이상
고도 5000ft 상공 구름 조금

METAR: RJTT 151000Z 34012G23KT 310V010 9999 FEW050 07/M06 Q1027 NOSIG RMK 1SC050 A3035

시각: 19:37 (10:37 UTC)

예보

예보는 5 시간 32분 전, 05:05시(UTC)에 발표되었습니다.
예보 대상 시간: 15일 06시부터 16일 12시까지 (UTC)
14kt
시정 10km 이상
고도 3000ft 상공 구름 조금
전환 중
16일 00시부터 16일 03시까지 (UTC)
8kt
전환 중
16일 09시부터 16일 12시까지 (UTC)
북북서5kt

TAF: RJTT 150505Z 1506/1612 01014KT 9999 FEW030 BECMG 1600/1603 18008KT BECMG 1609/1612 34005KT

4,000개 이상의 공항 관측 자료 및 예보 (METAR 및 TAF 보고).

지도상에서 검색 가능한 기상관측소가 노란 점과 빨간 점으로 표시되어 있습니다.

기상관측소 명을 보려면 표시 위로 마우스를 이동하세요.

날씨 관측과 예보를 보려면 클릭하세요.

지도 변경 : 확대하려면 엑스 표시가 있는 녹색 버튼, 축소하려면 빼기 표시가 있는 녹색 버튼, 다음 페이지의 지도를 보려면 녹색 화살표를 클릭하세요.


METAR-TAF: